tititudorancea.com
Station Historical Data
Daily Summary for February 21, 2018 Units:  Metric    English   Both
« Previous Day
Next Day »
Daily Weekly Monthly Yearly Custom
  High: Low: Average:
Temperature: -17.8 °C 17.9 °C 22.6 °C
Dew Point: -17.8 °C 9.7 °C 11.2 °C
Humidity: Humidity % 38 % 49 %
Wind Speed: 0 km/h 0 km/h 6.1 km/h
Wind Gust: 0 km/h - -
Wind:- - ENE
Pressure: 0 hPa 1010.4 hPa -
Precipitation: 0 mm    
Historical Graphs
 
 
Ararat weather Find more about Weather in Ararat, AU


 



 


Tabular Data for February 21, 2018
Time Temperature Dew Point Pressure Wind Wind Speed Wind Gust Humidity Rainfall Rate (Hourly)
-17.8 °C -17.8 °C 0 hPa Calm     Humidity % 0 mm
00:04 19.9 °C 10.9 °C 1012.1 hPa Calm   3.7 km/h 56 % 0 mm
00:09 19.8 °C 11 °C 1012.1 hPa Calm     57 % 0 mm
00:14 19.6 °C 11.1 °C 1012.1 hPa Calm     58 % 0 mm
00:19 19.6 °C 11.1 °C 1011.7 hPa Calm     58 % 0 mm
00:24 19.4 °C 10.9 °C 1011.7 hPa Calm     58 % 0 mm
00:29 19.2 °C 11 °C 1011.7 hPa Calm     59 % 0 mm
00:34 19.2 °C 11 °C 1011.7 hPa SSE 1.3 km/h 3.2 km/h 59 % 0 mm
00:39 19.2 °C 11 °C 1011.7 hPa Calm     59 % 0 mm
00:44 19.2 °C 10.9 °C 1011.7 hPa Calm   1.9 km/h 59 % 0 mm
00:46 19.2 °C 10.9 °C 1011.7 hPa Calm   1.9 km/h 59 % 0 mm
00:51 19.2 °C 10.9 °C 1011.7 hPa Calm     59 % 0 mm
00:56 19.1 °C 11.2 °C 1011.7 hPa Calm     60 % 0 mm
01:01 19.1 °C 11.2 °C 1011.4 hPa Calm     60 % 0 mm
01:06 19.1 °C 11.1 °C 1011.4 hPa Calm     60 % 0 mm
01:11 19 °C 11.1 °C 1011.4 hPa SSE 1.4 km/h 3.7 km/h 60 % 0 mm
01:16 18.9 °C 11.3 °C 1011.4 hPa SSE 1.3 km/h 3.7 km/h 61 % 0 mm
01:21 18.9 °C 11.3 °C 1011.4 hPa Calm     61 % 0 mm
01:26 18.9 °C 11.3 °C 1011.1 hPa Calm     61 % 0 mm
01:31 18.9 °C 11.2 °C 1011.1 hPa Calm     61 % 0 mm
01:36 18.8 °C 11.1 °C 1011.1 hPa Calm     61 % 0 mm
01:41 18.7 °C 11.2 °C 1011.1 hPa Calm     62 % 0 mm
01:46 18.5 °C 11.1 °C 1011.1 hPa Calm     62 % 0 mm
01:51 18.4 °C 11.2 °C 1011.1 hPa Calm     63 % 0 mm
01:56 18.3 °C 11.4 °C 1011.1 hPa Calm     64 % 0 mm
02:01 18.3 °C 11.3 °C 1011.1 hPa Calm     64 % 0 mm
02:06 18.2 °C 11.3 °C 1011.1 hPa Calm     64 % 0 mm
02:11 18.1 °C 11.2 °C 1011.1 hPa Calm     64 % 0 mm
02:16 18 °C 11.3 °C 1011.1 hPa Calm     65 % 0 mm
02:21 17.9 °C 11.3 °C 1011.1 hPa Calm     65 % 0 mm
02:26 17.9 °C 11.4 °C 1011.1 hPa SSE 2.7 km/h 6.4 km/h 66 % 0 mm
02:31 18 °C 11.3 °C 1011.1 hPa SSE 3.7 km/h 5.6 km/h 65 % 0 mm
02:36 18.2 °C 11.6 °C 1011.1 hPa SSE 3.2 km/h 3.7 km/h 65 % 0 mm
02:41 18.4 °C 11.5 °C 1011.1 hPa Calm     64 % 0 mm
02:46 19 °C 11.3 °C 1011.1 hPa SSE 3.5 km/h 7.4 km/h 61 % 0 mm
02:51 19.6 °C 11.3 °C 1011.1 hPa SSE 0.3 km/h 5.6 km/h 59 % 0 mm
02:56 19.7 °C 11.2 °C 1011.1 hPa SSE 5.6 km/h 7.4 km/h 58 % 0 mm
03:01 20 °C 11.2 °C 1011.1 hPa SSE 6 km/h 7.4 km/h 57 % 0 mm
03:06 20.2 °C 11.1 °C 1011.1 hPa SSE 4.3 km/h 5.6 km/h 56 % 0 mm
03:11 20.3 °C 11.2 °C 1011.1 hPa SSE 4.3 km/h 6.4 km/h 56 % 0 mm
03:16 20.4 °C 11.1 °C 1011.1 hPa SSE 3.4 km/h 5.6 km/h 55 % 0 mm
03:21 20.7 °C 11 °C 1011.1 hPa SSE 3.2 km/h 5.6 km/h 54 % 0 mm
03:26 20.7 °C 11 °C 1011.1 hPa Calm     54 % 0 mm
03:27 20.7 °C 11 °C 1011.1 hPa Calm     54 % 0 mm
03:32 20.6 °C 11.2 °C 1010.7 hPa SSE 0.2 km/h 1.9 km/h 55 % 0 mm
03:37 20.4 °C 11.1 °C 1010.7 hPa SSE 1.6 km/h 3.7 km/h 55 % 0 mm
03:42 20.3 °C 11 °C 1010.7 hPa SSE 7.2 km/h 9.3 km/h 55 % 0 mm
03:47 20.4 °C 11.1 °C 1010.7 hPa SSE 1.6 km/h 3.7 km/h 55 % 0 mm
03:52 20.4 °C 11.1 °C 1010.7 hPa SSE 2.4 km/h 3.7 km/h 55 % 0 mm
03:57 20.4 °C 11.1 °C 1010.7 hPa SSE 6.3 km/h 7.4 km/h 55 % 0 mm
04:02 20.5 °C 11.2 °C 1010.7 hPa SSE 3.7 km/h 6.4 km/h 55 % 0 mm
04:07 20.7 °C 11 °C 1010.7 hPa SSE 4.7 km/h 6.4 km/h 54 % 0 mm
04:12 20.7 °C 11 °C 1010.7 hPa SSE 5.5 km/h 5.6 km/h 54 % 0 mm
04:17 20.7 °C 11.1 °C 1010.7 hPa SSE 5.3 km/h 6.4 km/h 54 % 0 mm
04:22 20.9 °C 10.9 °C 1010.7 hPa SSE 6.3 km/h 7.4 km/h 53 % 0 mm
04:27 21 °C 11.1 °C 1011.1 hPa SSE 7.2 km/h 9.3 km/h 53 % 0 mm
04:32 21 °C 11.1 °C 1011.1 hPa SSE 4.2 km/h 5.6 km/h 53 % 0 mm
04:37 21.1 °C 10.8 °C 1011.1 hPa SE 7.7 km/h 11.1 km/h 52 % 0 mm
04:42 21.1 °C 10.9 °C 1011.4 hPa SE 3.2 km/h 6.4 km/h 52 % 0 mm
04:47 21.2 °C 10.9 °C 1011.4 hPa SE 6.9 km/h 9.3 km/h 52 % 0 mm
04:52 21.3 °C 11.1 °C 1011.4 hPa SE 2.6 km/h 3.7 km/h 52 % 0 mm
04:57 21.3 °C 11.1 °C 1011.4 hPa ESE 5.8 km/h 11.1 km/h 52 % 0 mm
05:02 21.3 °C 11.1 °C 1011.4 hPa ESE 2.4 km/h 5.6 km/h 52 % 0 mm
05:07 21.2 °C 10.9 °C 1011.4 hPa ESE 2.1 km/h 3.7 km/h 52 % 0 mm
05:12 21.2 °C 10.9 °C 1011.4 hPa ESE 0.5 km/h 5.6 km/h 52 % 0 mm
05:17 21.1 °C 11.1 °C 1011.4 hPa ESE 1.3 km/h 3.7 km/h 53 % 0 mm
05:22 20.9 °C 11 °C 1011.4 hPa Calm     53 % 0 mm
05:27 20.8 °C 11.1 °C 1011.4 hPa ESE 0.6 km/h 1.9 km/h 54 % 0 mm
05:32 20.7 °C 11.1 °C 1011.4 hPa ESE 2.6 km/h 3.7 km/h 54 % 0 mm
05:37 20.6 °C 11 °C 1011.4 hPa ESE 2.4 km/h 3.7 km/h 54 % 0 mm
05:42 20.6 °C 11 °C 1011.1 hPa ESE 6.3 km/h 7.4 km/h 54 % 0 mm
05:47 20.7 °C 11 °C 1011.1 hPa ESE 5.5 km/h 7.4 km/h 54 % 0 mm
05:52 20.7 °C 11 °C 1011.1 hPa ESE 5.6 km/h 8 km/h 54 % 0 mm
05:57 20.7 °C 11.1 °C 1011.1 hPa ESE 5.3 km/h 9.3 km/h 54 % 0 mm
06:02 20.7 °C 11.1 °C 1011.4 hPa ESE 5.1 km/h 9.3 km/h 54 % 0 mm
06:07 20.7 °C 11.1 °C 1011.4 hPa ESE 3.7 km/h 8 km/h 54 % 0 mm
06:12 20.6 °C 11 °C 1011.4 hPa ESE 1.9 km/h 7.4 km/h 54 % 0 mm
06:17 20.6 °C 10.9 °C 1011.4 hPa ESE 5.6 km/h 9.3 km/h 54 % 0 mm
06:22 20.6 °C 10.9 °C 1011.4 hPa ESE 7.6 km/h 11.1 km/h 54 % 0 mm
06:27 20.7 °C 10.7 °C 1011.4 hPa East 6.6 km/h 11.1 km/h 53 % 0 mm
06:32 20.8 °C 10.8 °C 1011.4 hPa East 7.7 km/h 11.1 km/h 53 % 0 mm
06:37 20.8 °C 10.6 °C 1011.4 hPa East 2.7 km/h 5.6 km/h 52 % 0 mm
06:42 20.8 °C 10.6 °C 1011.4 hPa East 6.3 km/h 9.3 km/h 52 % 0 mm
06:47 20.9 °C 10.7 °C 1011.7 hPa East 5.8 km/h 9.7 km/h 52 % 0 mm
06:52 20.9 °C 10.7 °C 1011.7 hPa ENE 5.8 km/h 12.9 km/h 52 % 0 mm
06:57 20.9 °C 10.4 °C 1011.7 hPa ENE 5 km/h 6.4 km/h 51 % 0 mm
07:02 20.9 °C 10.4 °C 1011.7 hPa ENE 5.5 km/h 9.7 km/h 51 % 0 mm
07:07 20.9 °C 10.4 °C 1011.7 hPa ENE 6.6 km/h 9.3 km/h 51 % 0 mm
07:12 20.9 °C 10.4 °C 1011.7 hPa ENE 4 km/h 5.6 km/h 51 % 0 mm
07:17 20.8 °C 10.3 °C 1012.1 hPa ENE 4.7 km/h 5.6 km/h 51 % 0 mm
07:22 20.8 °C 10.3 °C 1012.1 hPa ENE 5.5 km/h 9.3 km/h 51 % 0 mm
07:27 20.8 °C 10.3 °C 1012.4 hPa ENE 6.4 km/h 11.3 km/h 51 % 0 mm
07:32 20.8 °C 10.3 °C 1012.4 hPa NNE 6.8 km/h 13 km/h 51 % 0 mm
07:37 20.8 °C 10.3 °C 1012.4 hPa NNE 5.1 km/h 9.3 km/h 51 % 0 mm
07:42 20.7 °C 10.5 °C 1012.4 hPa NNE 8.2 km/h 14.5 km/h 52 % 0 mm
07:47 20.7 °C 10.4 °C 1012.4 hPa NNE 7.4 km/h 11.1 km/h 52 % 0 mm
07:52 20.6 °C 10.4 °C 1012.8 hPa NNE 6 km/h 13 km/h 52 % 0 mm
07:57 20.6 °C 10.3 °C 1012.8 hPa NNE 6.9 km/h 11.1 km/h 52 % 0 mm
08:02 20.5 °C 10.3 °C 1012.8 hPa NNE 5.8 km/h 9.7 km/h 52 % 0 mm
08:07 20.5 °C 10.3 °C 1013.1 hPa NNE 11.7 km/h 14.8 km/h 52 % 0 mm
08:12 20.4 °C 10.3 °C 1012.8 hPa NNE 10.3 km/h 16.7 km/h 52 % 0 mm
08:17 20.4 °C 10.2 °C 1013.1 hPa NNE 12.7 km/h 16.7 km/h 52 % 0 mm
08:22 20.4 °C 10.2 °C 1013.1 hPa NNE 12.1 km/h 16.7 km/h 52 % 0 mm
08:27 20.3 °C 10.2 °C 1012.8 hPa NNE 10 km/h 14.8 km/h 52 % 0 mm
08:32 20.3 °C 9.8 °C 1012.8 hPa NNE 7.9 km/h 9.7 km/h 51 % 0 mm
08:37 20.3 °C 9.8 °C 1012.8 hPa NNE 10.6 km/h 18.5 km/h 51 % 0 mm
08:42 20.3 °C 9.8 °C 1012.8 hPa NNE 11.7 km/h 18.5 km/h 51 % 0 mm
08:47 20.3 °C 9.8 °C 1012.8 hPa North 15.3 km/h 27.8 km/h 51 % 0 mm
08:52 20.3 °C 9.8 °C 1012.8 hPa North 9.8 km/h 16.7 km/h 51 % 0 mm
08:57 20.4 °C 9.9 °C 1013.1 hPa North 12.7 km/h 18.5 km/h 51 % 0 mm
09:02 20.4 °C 9.9 °C 1013.1 hPa NNE 10.8 km/h 18.5 km/h 51 % 0 mm
09:07 20.5 °C 9.7 °C 1013.1 hPa NNE 19.3 km/h 25.9 km/h 50 % 0 mm
09:12 20.6 °C 9.8 °C 1013.1 hPa NNE 15.6 km/h 25.9 km/h 50 % 0 mm
09:17 20.7 °C 9.9 °C 1013.1 hPa NNE 10.8 km/h 16.7 km/h 50 % 0 mm
09:22 20.8 °C 9.9 °C 1013.1 hPa NE 9.3 km/h 13 km/h 50 % 0 mm
09:27 20.9 °C 9.8 °C 1013.1 hPa NNE 16.1 km/h 25.9 km/h 49 % 0 mm
09:32 20.9 °C 9.8 °C 1013.1 hPa NNE 14.6 km/h 22.2 km/h 49 % 0 mm
09:37 21 °C 9.9 °C 1013.1 hPa NNE 8.2 km/h 18.5 km/h 49 % 0 mm
09:42 21.1 °C 10 °C 1013.1 hPa NNE 16.1 km/h 22.2 km/h 49 % 0 mm
09:47 21.2 °C 10 °C 1013.1 hPa NNE 12.9 km/h 22.2 km/h 49 % 0 mm
09:52 21.2 °C 10.1 °C 1013.1 hPa NNE 11.6 km/h 22.5 km/h 49 % 0 mm
09:57 21.4 °C 10.2 °C 1013.4 hPa NNE 7.1 km/h 16.7 km/h 49 % 0 mm
10:02 21.6 °C 10.1 °C 1013.1 hPa North 13.8 km/h 25.9 km/h 48 % 0 mm
10:07 21.7 °C 10.2 °C 1013.1 hPa North 17.9 km/h 20.4 km/h 48 % 0 mm
10:12 21.8 °C 10.3 °C 1013.1 hPa NNE 9.3 km/h 11.3 km/h 48 % 0 mm
10:17 21.8 °C 10.3 °C 1013.4 hPa NNE 13 km/h 25.9 km/h 48 % 0 mm
10:22 21.8 °C 10.6 °C 1013.4 hPa NNE 17.7 km/h 25.9 km/h 49 % 0 mm
10:27 21.8 °C 10.6 °C 1013.4 hPa North 14.8 km/h 19.3 km/h 49 % 0 mm
10:32 21.8 °C 10.6 °C 1013.4 hPa North 14.8 km/h 22.2 km/h 49 % 0 mm
10:37 21.7 °C 10.6 °C 1013.4 hPa North 14.6 km/h 18.5 km/h 49 % 0 mm
10:42 21.8 °C 10.6 °C 1013.4 hPa NNE 14.6 km/h 18.5 km/h 49 % 0 mm
10:47 21.9 °C 10.7 °C 1013.1 hPa North 9.3 km/h 16.7 km/h 49 % 0 mm
10:52 22.1 °C 10.8 °C 1013.1 hPa NNE 12.4 km/h 18.5 km/h 49 % 0 mm
10:57 22.1 °C 10.6 °C 1013.1 hPa NNE 10.9 km/h 18.5 km/h 48 % 0 mm
11:02 22.2 °C 10.6 °C 1013.1 hPa NNE 18.8 km/h 25.9 km/h 48 % 0 mm
11:07 22.2 °C 10.6 °C 1013.1 hPa NE 13.2 km/h 24.1 km/h 48 % 0 mm
11:12 22.2 °C 10.7 °C 1013.1 hPa NNE 9.5 km/h 16.7 km/h 48 % 0 mm
11:17 22.6 °C 11 °C 1013.1 hPa North 13.2 km/h 20.4 km/h 48 % 0 mm
11:22 22.8 °C 10.9 °C 1013.1 hPa NNE 18.5 km/h 25.9 km/h 47 % 0 mm
11:27 23.1 °C 10.8 °C 1013.1 hPa NNE 16.9 km/h 27.8 km/h 46 % 0 mm
11:32 23.1 °C 10.8 °C 1012.8 hPa NE 9 km/h 22.2 km/h 46 % 0 mm
11:37 23.2 °C 10.6 °C 1012.8 hPa NNE 9.5 km/h 18.5 km/h 45 % 0 mm
11:42 23.6 °C 10.9 °C 1012.8 hPa NNE 9.2 km/h 13 km/h 45 % 0 mm
11:47 23.7 °C 10.7 °C 1012.8 hPa NNE 17.5 km/h 24.1 km/h 44 % 0 mm
11:52 23.7 °C 10.7 °C 1012.8 hPa NNE 18.3 km/h 24.1 km/h 44 % 0 mm
11:57 23.9 °C 10.9 °C 1012.8 hPa NNE 18 km/h 22.2 km/h 44 % 0 mm
12:02 24.1 °C 11.1 °C 1012.8 hPa North 14.8 km/h 24.1 km/h 44 % 0 mm
12:07 24.2 °C 11.2 °C 1012.8 hPa NNE 13.8 km/h 16.1 km/h 44 % 0 mm
12:12 24.4 °C 11.3 °C 1012.4 hPa North 15 km/h 22.5 km/h 44 % 0 mm
12:17 24.3 °C 11.2 °C 1012.4 hPa NNE 13 km/h 14.8 km/h 44 % 0 mm
12:22 24.4 °C 11 °C 1012.4 hPa North 15.4 km/h 20.9 km/h 43 % 0 mm
12:27 24.2 °C 11.2 °C 1012.4 hPa NNE 15.1 km/h 22.5 km/h 44 % 0 mm
12:32 24.4 °C 11 °C 1012.4 hPa North 15 km/h 16.1 km/h 43 % 0 mm
12:37 24.7 °C 11.2 °C 1012.4 hPa North 16.6 km/h 20.4 km/h 43 % 0 mm
12:42 24.7 °C 10.9 °C 1012.4 hPa North 14.8 km/h 22.2 km/h 42 % 0 mm
12:47 24.7 °C 10.9 °C 1012.4 hPa NNE 14.2 km/h 18.5 km/h 42 % 0 mm
12:52 24.9 °C 11.1 °C 1012.4 hPa NE 12.1 km/h 20.4 km/h 42 % 0 mm
12:57 25 °C 11.2 °C 1012.4 hPa NNE 14.8 km/h 31.5 km/h 42 % 0 mm
13:02 25.3 °C 11.4 °C 1012.4 hPa North 10.1 km/h 18.5 km/h 42 % 0 mm
13:07 25.6 °C 11.3 °C 1012.4 hPa North 15.4 km/h 25.7 km/h 41 % 0 mm
13:12 25.4 °C 11.2 °C 1012.4 hPa NNE 12.4 km/h 20.9 km/h 41 % 0 mm
13:17 25.3 °C 11.1 °C 1012.1 hPa NNE 16.6 km/h 29.6 km/h 41 % 0 mm
13:22 25.2 °C 11.1 °C 1012.1 hPa North 17.5 km/h 25.9 km/h 41 % 0 mm
13:27 25.2 °C 11.1 °C 1012.1 hPa North 13 km/h 22.2 km/h 41 % 0 mm
13:32 25.2 °C 11.1 °C 1012.1 hPa NNE 9.8 km/h 16.7 km/h 41 % 0 mm
13:37 25.3 °C 11.1 °C 1012.1 hPa North 14.5 km/h 16.7 km/h 41 % 0 mm
13:42 25.3 °C 11.1 °C 1012.1 hPa NNE 14.2 km/h 25.9 km/h 41 % 0 mm
13:47 25.3 °C 11.4 °C 1012.1 hPa NNE 6.4 km/h 13 km/h 42 % 0 mm
13:52 25.4 °C 11.2 °C 1012.1 hPa NNE 11.6 km/h 27.8 km/h 41 % 0 mm
13:57 25.4 °C 11.2 °C 1012.1 hPa North 11.4 km/h 18.5 km/h 41 % 0 mm
14:02 25.6 °C 11.4 °C 1011.7 hPa NNE 15.8 km/h 24.1 km/h 41 % 0 mm
14:07 25.6 °C 11.4 °C 1011.7 hPa NNE 12.4 km/h 20.4 km/h 41 % 0 mm
14:12 25.7 °C 11.4 °C 1011.7 hPa NNE 13.4 km/h 18.5 km/h 41 % 0 mm
14:18 25.7 °C 11.5 °C 1011.4 hPa NW 10.5 km/h 18.5 km/h 41 % 0 mm
14:23 25.9 °C 11.6 °C 1011.4 hPa NNE 8.4 km/h 16.1 km/h 41 % 0 mm
14:28 26 °C 11.7 °C 1011.7 hPa NNE 9.7 km/h 18.5 km/h 41 % 0 mm
14:32 25.9 °C 11.6 °C 1011.7 hPa North 13.5 km/h 22.2 km/h 41 % 0 mm
14:38 25.9 °C 11.3 °C 1011.4 hPa NE 7.1 km/h 14.8 km/h 40 % 0 mm
14:43 25.9 °C 11.3 °C 1011.7 hPa NNE 9.8 km/h 13 km/h 40 % 0 mm
14:48 25.9 °C 11.3 °C 1011.4 hPa NE 10.8 km/h 16.7 km/h 40 % 0 mm
14:53 25.8 °C 11.2 °C 1011.4 hPa NE 6.8 km/h 9.3 km/h 40 % 0 mm
14:58 25.9 °C 11.3 °C 1011.4 hPa NNE 13.5 km/h 18.5 km/h 40 % 0 mm
15:03 25.8 °C 11.2 °C 1011.4 hPa NE 9.8 km/h 14.8 km/h 40 % 0 mm
15:08 25.7 °C 11.1 °C 1011.4 hPa NNE 10.6 km/h 14.8 km/h 40 % 0 mm
15:13 25.6 °C 11.4 °C 1011.4 hPa NNE 7.7 km/h 16.7 km/h 41 % 0 mm
15:18 25.6 °C 11.3 °C 1011.4 hPa NE 8.7 km/h 13 km/h 41 % 0 mm
15:23 25.5 °C 11.3 °C 1011.4 hPa NNE 12.1 km/h 16.7 km/h 41 % 0 mm
15:28 25.6 °C 11.3 °C 1011.4 hPa NNE 6.9 km/h 14.5 km/h 41 % 0 mm
15:33 25.6 °C 11.3 °C 1011.1 hPa NNE 6.6 km/h 11.1 km/h 41 % 0 mm
15:38 25.7 °C 11.1 °C 1011.1 hPa NE 7.1 km/h 11.3 km/h 40 % 0 mm
15:43 25.7 °C 11.5 °C 1011.1 hPa NNE 7.2 km/h 14.8 km/h 41 % 0 mm
15:48 25.8 °C 11.5 °C 1011.1 hPa NNE 5.8 km/h 14.5 km/h 41 % 0 mm
15:53 25.9 °C 11.3 °C 1011.1 hPa NNE 7.4 km/h 8 km/h 40 % 0 mm
15:58 26 °C 11.3 °C 1011.1 hPa North 12.7 km/h 16.7 km/h 40 % 0 mm
16:03 25.9 °C 11.3 °C 1011.1 hPa North 7.4 km/h 11.3 km/h 40 % 0 mm
16:08 25.9 °C 11.3 °C 1011.1 hPa NNE 10.6 km/h 14.8 km/h 40 % 0 mm
16:13 26.1 °C 11.4 °C 1011.1 hPa NNE 10.5 km/h 16.7 km/h 40 % 0 mm
16:18 26.2 °C 11.6 °C 1011.1 hPa NNE 9.7 km/h 14.8 km/h 40 % 0 mm
16:23 26.3 °C 11.7 °C 1010.7 hPa North 7.4 km/h 11.1 km/h 40 % 0 mm
16:28 26.6 °C 11.5 °C 1010.7 hPa NNE 7.1 km/h 9.3 km/h 39 % 0 mm
16:33 26.8 °C 11.3 °C 1011.1 hPa North 6 km/h 11.1 km/h 38 % 0 mm
16:38 26.9 °C 11.4 °C 1010.7 hPa North 15.3 km/h 20.4 km/h 38 % 0 mm
16:43 26.8 °C 11.7 °C 1010.7 hPa North 12.7 km/h 18.5 km/h 39 % 0 mm
16:48 26.8 °C 11.7 °C 1010.7 hPa NNE 11.4 km/h 14.8 km/h 39 % 0 mm
16:53 26.6 °C 11.5 °C 1010.7 hPa NNE 7.9 km/h 14.5 km/h 39 % 0 mm
16:58 26.6 °C 11.5 °C 1010.4 hPa NNE 6.6 km/h 9.3 km/h 39 % 0 mm
17:03 26.8 °C 11.7 °C 1010.7 hPa NNE 6.8 km/h 13 km/h 39 % 0 mm
17:08 26.9 °C 11.8 °C 1010.7 hPa NNE 4.3 km/h 6.4 km/h 39 % 0 mm
17:13 26.9 °C 11.8 °C 1010.7 hPa NNE 6.1 km/h 9.3 km/h 39 % 0 mm
17:18 27 °C 11.9 °C 1010.7 hPa NNE 3.9 km/h 9.3 km/h 39 % 0 mm
17:23 27.1 °C 11.6 °C 1010.7 hPa North 10.6 km/h 13 km/h 38 % 0 mm
17:28 27 °C 11.4 °C 1010.7 hPa NNE 9.7 km/h 16.7 km/h 38 % 0 mm
17:33 27.1 °C 11.9 °C 1010.4 hPa North 6.8 km/h 9.7 km/h 39 % 0 mm
17:38 27.2 °C 12 °C 1010.7 hPa North 7.6 km/h 11.3 km/h 39 % 0 mm
17:43 27.1 °C 11.6 °C 1010.7 hPa NNE 7.7 km/h 11.1 km/h 38 % 0 mm
17:48 27.1 °C 11.9 °C 1010.4 hPa NNE 5.8 km/h 8 km/h 39 % 0 mm
17:53 27.1 °C 11.9 °C 1010.4 hPa NNE 1.6 km/h 3.7 km/h 39 % 0 mm
17:58 27.1 °C 11.9 °C 1010.7 hPa NNE 5.6 km/h 7.4 km/h 39 % 0 mm
18:03 27.2 °C 12 °C 1010.4 hPa NNE 4 km/h 5.6 km/h 39 % 0 mm
18:08 27.2 °C 11.7 °C 1010.4 hPa NNE 3.7 km/h 9.7 km/h 38 % 0 mm
18:13 27.3 °C 11.7 °C 1010.4 hPa NNE 5.8 km/h 7.4 km/h 38 % 0 mm
18:18 27.2 °C 11.7 °C 1010.4 hPa NNE 3.4 km/h 6.4 km/h 38 % 0 mm
18:23 27.2 °C 12.1 °C 1010.4 hPa NNE 5.8 km/h 7.4 km/h 39 % 0 mm
18:28 27.2 °C 11.7 °C 1010.4 hPa NNE 4 km/h 7.4 km/h 38 % 0 mm
18:33 27.2 °C 11.6 °C 1010.4 hPa NNE 8.4 km/h 9.7 km/h 38 % 0 mm
18:38 27.1 °C 11.9 °C 1010.4 hPa NNE 7.1 km/h 9.3 km/h 39 % 0 mm
18:43 26.9 °C 11.8 °C 1010.4 hPa NNE 7.1 km/h 9.3 km/h 39 % 0 mm
18:48 26.8 °C 12.1 °C 1010.4 hPa NNE 2.1 km/h 5.6 km/h 40 % 0 mm
18:53 26.7 °C 12 °C 1010.4 hPa NE 3.9 km/h 5.6 km/h 40 % 0 mm
18:58 26.7 °C 11.9 °C 1010.4 hPa Calm   1.9 km/h 40 % 0 mm
19:03 26.6 °C 11.8 °C 1010.4 hPa NE 2.6 km/h 8 km/h 40 % 0 mm
19:08 26.4 °C 11.7 °C 1010.4 hPa NE 5.5 km/h 11.1 km/h 40 % 0 mm
19:13 26.4 °C 12.1 °C 1010.4 hPa NE 1.9 km/h 5.6 km/h 41 % 0 mm
19:18 26.4 °C 12.1 °C 1010.4 hPa NE 2.3 km/h 7.4 km/h 41 % 0 mm
19:23 26.3 °C 12.7 °C 1010.7 hPa NE 1 km/h 5.6 km/h 43 % 0 mm
19:28 26.2 °C 12.7 °C 1010.7 hPa NE 2.3 km/h 5.6 km/h 43 % 0 mm
19:33 26.1 °C 12.9 °C 1010.7 hPa NE 3.1 km/h 5.6 km/h 44 % 0 mm
19:39 25.9 °C 12.4 °C 1010.7 hPa NE 2.6 km/h 3.7 km/h 43 % 0 mm
19:44 25.9 °C 12.7 °C 1010.7 hPa NE 0.6 km/h 3.7 km/h 44 % 0 mm
19:49 25.8 °C 12.6 °C 1011.1 hPa NE 1 km/h 5.6 km/h 44 % 0 mm
19:54 25.7 °C 12.6 °C 1011.1 hPa Calm   1.9 km/h 44 % 0 mm
19:59 25.7 °C 12.5 °C 1011.1 hPa NE 5.1 km/h 5.6 km/h 44 % 0 mm
20:04 25.6 °C 12.1 °C 1011.1 hPa NE 3.7 km/h 7.4 km/h 43 % 0 mm
20:09 25.5 °C 12.3 °C 1011.1 hPa NE 1.3 km/h 3.7 km/h 44 % 0 mm
20:14 25.4 °C 12.2 °C 1011.1 hPa NE 1.6 km/h 5.6 km/h 44 % 0 mm
20:19 25.2 °C 12.1 °C 1011.1 hPa NE 1.1 km/h 1.9 km/h 44 % 0 mm
20:24 25.1 °C 12.3 °C 1011.1 hPa NE 0.3 km/h 1.9 km/h 45 % 0 mm
20:29 24.9 °C 12.2 °C 1011.1 hPa Calm     45 % 0 mm
20:34 24.8 °C 12.4 °C 1011.1 hPa NE 0.2 km/h 1.9 km/h 46 % 0 mm
20:39 24.6 °C 12.2 °C 1011.1 hPa Calm     46 % 0 mm
20:44 24.4 °C 12.4 °C 1011.1 hPa Calm     47 % 0 mm
20:49 24.2 °C 12.5 °C 1011.4 hPa Calm     48 % 0 mm
20:54 24 °C 12.3 °C 1011.4 hPa Calm     48 % 0 mm
20:59 23.8 °C 12.4 °C 1011.4 hPa Calm     49 % 0 mm
21:04 23.6 °C 12.6 °C 1011.4 hPa Calm     50 % 0 mm
21:09 23.4 °C 12.7 °C 1011.4 hPa Calm     51 % 0 mm
21:14 23.3 °C 12.9 °C 1011.4 hPa Calm     52 % 0 mm
21:19 23.1 °C 13 °C 1011.4 hPa Calm     53 % 0 mm
21:24 22.9 °C 12.8 °C 1011.4 hPa Calm     53 % 0 mm
21:29 22.8 °C 13.1 °C 1011.7 hPa Calm     54 % 0 mm
21:34 22.7 °C 12.9 °C 1011.7 hPa Calm     54 % 0 mm
21:39 22.6 °C 12.8 °C 1011.7 hPa Calm     54 % 0 mm
21:44 22.4 °C 12.9 °C 1011.7 hPa Calm     55 % 0 mm
21:49 22.3 °C 12.8 °C 1011.7 hPa NE 2.4 km/h 3.7 km/h 55 % 0 mm
21:54 22.3 °C 12.6 °C 1011.7 hPa NE 4.8 km/h 5.6 km/h 54 % 0 mm
21:59 22.4 °C 12.3 °C 1011.7 hPa NE 6 km/h 7.4 km/h 53 % 0 mm
22:04 22.7 °C 12.3 °C 1012.1 hPa NE 4.5 km/h 5.6 km/h 52 % 0 mm
22:09 22.8 °C 12.4 °C 1012.1 hPa Calm   3.7 km/h 52 % 0 mm
22:14 22.8 °C 12.4 °C 1012.1 hPa NE 1 km/h 4.8 km/h 52 % 0 mm
22:19 22.8 °C 12.4 °C 1012.1 hPa NE 1.4 km/h 3.7 km/h 52 % 0 mm
22:24 22.8 °C 12.1 °C 1012.1 hPa NE 3.4 km/h 5.6 km/h 51 % 0 mm
22:29 22.8 °C 12.1 °C 1012.1 hPa NE 3.7 km/h 5.6 km/h 51 % 0 mm
22:34 22.8 °C 12.4 °C 1012.1 hPa NE 2.7 km/h 3.7 km/h 52 % 0 mm
22:39 22.7 °C 12.3 °C 1012.1 hPa Calm     52 % 0 mm
22:44 22.7 °C 12.3 °C 1012.1 hPa NE 1.3 km/h 3.7 km/h 52 % 0 mm
22:49 22.6 °C 12.3 °C 1011.7 hPa Calm     52 % 0 mm
22:54 22.6 °C 12.2 °C 1011.7 hPa Calm     52 % 0 mm
22:59 22.4 °C 12.4 °C 1011.7 hPa Calm     53 % 0 mm
23:04 22.3 °C 12.6 °C 1011.7 hPa NE 0.2 km/h   54 % 0 mm
23:09 22.2 °C 12.4 °C 1011.7 hPa Calm     54 % 0 mm
23:14 22.1 °C 12.4 °C 1011.7 hPa Calm     54 % 0 mm
23:19 22 °C 12.3 °C 1011.7 hPa Calm     54 % 0 mm
23:24 21.9 °C 12.5 °C 1011.7 hPa Calm     55 % 0 mm
23:29 21.9 °C 12.4 °C 1011.7 hPa Calm     55 % 0 mm
23:34 21.9 °C 12.5 °C 1011.7 hPa Calm     55 % 0 mm
23:39 21.9 °C 12.7 °C 1011.7 hPa Calm     56 % 0 mm
23:44 21.8 °C 12.6 °C 1011.7 hPa Calm     56 % 0 mm
23:49 21.7 °C 12.5 °C 1011.7 hPa Calm     56 % 0 mm
23:54 21.6 °C 12.7 °C 1011.7 hPa NE 0.5 km/h 1.9 km/h 57 % 0 mm
23:59 21.5 °C 12.9 °C 1011.7 hPa Calm     58 % 0 mm
Ararat Weather
Compliments of Weather Underground - 2.5 mb
Click here to send mail.


ABOUT

Live weather data from Ararat, Victoria, Australia, 3377
Data uploaded from Cumulus every 5 minutes to Weather Underground.
This site then downloads the raw data for formatting and display.
Metric and imperial data can be displayed. Graphs and historical data available.
Includes Sun and Moon times and rain image live from BOM.

Check out Ararat Weather on Facebook, Twitter and Google +

Help support ongoing costs by checking out the ads





Follow @AraratWeather